createdAt,value
2023-05-02T05:04:07.452Z,79.30
2023-05-02T05:09:11.359Z,79.50
2023-05-02T05:14:14.769Z,79.80
2023-05-02T05:19:19.995Z,79.80
2023-05-02T05:24:23.488Z,79.80
2023-05-02T05:29:27.468Z,79.60
2023-05-02T05:34:32.226Z,79.40
2023-05-02T05:39:36.008Z,79.50
2023-05-02T05:44:39.869Z,79.60
2023-05-02T05:49:45.719Z,80.30
2023-05-02T05:54:49.250Z,80.00
2023-05-02T05:59:52.733Z,80.10
2023-05-02T06:04:57.946Z,79.70
2023-05-02T06:10:02.390Z,79.30
2023-05-02T06:15:07.649Z,79.50
2023-05-02T06:20:13.143Z,79.20
2023-05-02T06:25:16.568Z,79.00
2023-05-02T06:30:19.902Z,79.20
2023-05-02T06:35:24.576Z,78.20
2023-05-02T06:40:28.537Z,77.90
2023-05-02T06:45:32.464Z,77.90
2023-05-02T06:50:37.394Z,77.90
2023-05-02T06:55:40.916Z,77.70
2023-05-02T07:00:44.381Z,77.80
2023-05-02T07:05:49.121Z,78.40
2023-05-02T07:10:52.720Z,78.20
2023-05-02T07:15:56.581Z,77.70
2023-05-02T07:21:02.036Z,77.90
2023-05-02T07:26:06.458Z,77.40
2023-05-02T07:31:09.889Z,77.10
2023-05-02T07:36:14.667Z,77.70
2023-05-02T07:41:17.993Z,77.80
2023-05-02T07:46:21.681Z,77.70
2023-05-02T07:51:26.881Z,76.90
2023-05-02T07:56:31.245Z,75.90
2023-05-02T08:01:34.628Z,76.30
2023-05-02T08:06:39.514Z,77.00
2023-05-02T08:11:43.207Z,76.30
2023-05-02T08:16:46.940Z,76.40
2023-05-02T08:21:51.713Z,76.50
2023-05-02T08:26:55.085Z,76.50
2023-05-02T08:31:58.605Z,77.30
2023-05-02T08:37:03.382Z,76.70
2023-05-02T08:42:07.593Z,75.80
2023-05-02T08:47:12.214Z,75.50
2023-05-02T08:52:18.142Z,74.80
2023-05-02T08:57:21.528Z,73.40
2023-05-02T09:02:29.483Z,71.80
2023-05-02T09:07:42.728Z,69.60
2023-05-02T09:12:46.045Z,68.00
2023-05-02T09:17:49.710Z,66.50
2023-05-02T09:22:54.552Z,64.50
2023-05-02T09:28:01.500Z,64.00
2023-05-02T09:33:05.247Z,63.40
2023-05-02T09:38:19.838Z,62.30
2023-05-02T09:43:23.330Z,61.00
2023-05-02T09:48:27.737Z,60.80
2023-05-02T09:53:32.669Z,59.90
2023-05-02T09:58:36.200Z,59.40
2023-05-02T10:03:42.199Z,60.10
2023-05-02T10:08:47.625Z,60.00
2023-05-02T10:13:51.272Z,59.80
2023-05-02T10:18:59.777Z,59.50
2023-05-02T10:24:04.633Z,57.80
2023-05-02T10:29:08.275Z,58.00
2023-05-02T10:34:12.175Z,59.50
2023-05-02T10:39:17.057Z,59.80
2023-05-02T10:44:33.137Z,59.60
2023-05-02T10:49:50.345Z,59.00
2023-05-02T10:55:14.385Z,58.10
2023-05-02T11:00:24.116Z,57.70
2023-05-02T11:05:28.003Z,56.70
2023-05-02T11:10:32.830Z,56.70
2023-05-02T11:16:00.682Z,56.40
2023-05-02T11:21:35.424Z,55.60
2023-05-02T11:26:40.115Z,55.90
2023-05-02T11:32:04.940Z,56.60
2023-05-02T11:37:12.256Z,55.80
2023-05-02T11:42:33.117Z,54.70
2023-05-02T11:47:36.548Z,54.20
2023-05-02T11:52:40.459Z,54.40
2023-05-02T11:57:45.226Z,54.70
2023-05-02T12:02:49.075Z,55.50
2023-05-02T12:07:52.660Z,54.90
2023-05-02T12:13:05.011Z,54.40
2023-05-02T12:18:08.655Z,53.40
2023-05-02T12:23:12.958Z,53.90
2023-05-02T12:28:18.301Z,53.80
2023-05-02T12:33:21.835Z,53.30
2023-05-02T12:38:25.812Z,53.30
2023-05-02T12:43:44.017Z,53.70
2023-05-02T12:48:47.491Z,53.00
2023-05-02T12:53:50.901Z,53.30
2023-05-02T12:58:56.071Z,52.80
2023-05-02T13:03:59.583Z,53.10
2023-05-02T13:09:02.969Z,53.50
2023-05-02T13:14:07.739Z,52.60
2023-05-02T13:19:11.111Z,51.80
2023-05-02T13:24:15.056Z,51.30
2023-05-02T13:29:19.924Z,51.50
2023-05-02T13:34:23.343Z,51.00
2023-05-02T13:39:26.786Z,51.00
2023-05-02T13:44:31.816Z,50.90
2023-05-02T13:49:35.159Z,50.50
2023-05-02T13:54:38.598Z,51.00
2023-05-02T13:59:43.290Z,51.10
2023-05-02T14:04:46.788Z,51.20
2023-05-02T14:09:50.325Z,51.50
2023-05-02T14:14:55.161Z,51.20
2023-05-02T14:19:58.549Z,50.60
2023-05-02T14:25:01.963Z,51.50
2023-05-02T14:30:07.645Z,51.80
2023-05-02T14:35:11.158Z,52.10
2023-05-02T14:40:15.071Z,52.50
2023-05-02T14:45:19.893Z,52.60
2023-05-02T14:50:23.276Z,52.30
2023-05-02T14:55:26.666Z,51.60
2023-05-02T15:00:31.377Z,51.90
2023-05-02T15:05:35.277Z,51.80
2023-05-02T15:10:38.664Z,52.60
2023-05-02T15:15:43.506Z,52.90
2023-05-02T15:20:46.878Z,51.90
2023-05-02T15:25:50.386Z,53.50
2023-05-02T15:30:55.144Z,53.50
2023-05-02T15:35:59.213Z,53.00
2023-05-02T15:41:02.540Z,52.90
2023-05-02T15:46:07.404Z,52.90
2023-05-02T15:51:10.842Z,53.00
2023-05-02T15:56:14.243Z,53.30
2023-05-02T16:01:21.114Z,53.30
2023-05-02T16:06:24.678Z,52.80
2023-05-02T16:11:28.046Z,53.20
2023-05-02T16:16:34.255Z,53.40
2023-05-02T16:21:38.031Z,53.20
2023-05-02T16:26:41.706Z,53.80
2023-05-02T16:31:46.497Z,53.40
2023-05-02T16:36:49.961Z,52.30
2023-05-02T16:41:53.668Z,53.80
2023-05-02T16:46:58.623Z,53.70
2023-05-02T16:52:02.080Z,53.40
2023-05-02T16:57:05.757Z,53.30
2023-05-02T17:02:10.612Z,53.60
2023-05-02T17:07:13.991Z,53.50
2023-05-02T17:12:22.395Z,53.60
2023-05-02T17:17:27.221Z,53.70
2023-05-02T17:22:30.886Z,53.50
2023-05-02T17:27:34.262Z,53.70
2023-05-02T17:32:39.017Z,53.60
2023-05-02T17:37:42.350Z,53.40
2023-05-02T17:42:45.752Z,53.80
2023-05-02T17:47:50.460Z,53.80
2023-05-02T17:52:53.932Z,53.90
2023-05-02T17:57:59.211Z,54.10
2023-05-02T18:03:04.264Z,54.50
2023-05-02T18:08:07.816Z,54.30
2023-05-02T18:13:11.218Z,54.40
2023-05-02T18:18:15.986Z,54.50
2023-05-02T18:23:19.293Z,54.60
2023-05-02T18:28:22.690Z,54.80
2023-05-02T18:33:27.386Z,54.80
2023-05-02T18:38:32.066Z,54.90
2023-05-02T18:43:35.552Z,55.00
2023-05-02T18:48:40.408Z,55.10
2023-05-02T18:53:43.782Z,55.20
2023-05-02T18:58:47.298Z,55.30
2023-05-02T19:03:53.222Z,55.50
2023-05-02T19:08:56.694Z,55.60
2023-05-02T19:14:03.613Z,55.80
2023-05-02T19:19:08.787Z,55.80
2023-05-02T19:24:12.142Z,56.10
2023-05-02T19:29:15.473Z,56.20
2023-05-02T19:34:20.852Z,56.50
2023-05-02T19:39:24.309Z,56.60
2023-05-02T19:44:27.601Z,56.80
2023-05-02T19:49:32.607Z,56.90
2023-05-02T19:54:35.984Z,57.10
2023-05-02T19:59:39.310Z,57.30
2023-05-02T20:04:43.965Z,57.40
2023-05-02T20:09:47.384Z,57.40
2023-05-02T20:14:50.796Z,57.70
2023-05-02T20:19:56.229Z,57.90
2023-05-02T20:24:59.575Z,57.80
2023-05-02T20:30:03.321Z,57.90
2023-05-02T20:35:08.688Z,58.00
2023-05-02T20:40:12.517Z,58.00
2023-05-02T20:45:16.553Z,58.00
2023-05-02T20:50:21.627Z,58.30
2023-05-02T20:55:25.472Z,58.30
2023-05-02T21:00:28.953Z,58.30
2023-05-02T21:05:33.744Z,58.40
2023-05-02T21:10:37.025Z,58.30
2023-05-02T21:15:40.431Z,58.40
2023-05-02T21:20:45.149Z,58.70
2023-05-02T21:25:48.504Z,59.00
2023-05-02T21:30:51.805Z,59.40
2023-05-02T21:35:59.747Z,59.60
2023-05-02T21:41:03.689Z,59.80
2023-05-02T21:46:07.158Z,60.00
2023-05-02T21:51:13.986Z,60.20
2023-05-02T21:56:17.466Z,60.30
2023-05-02T22:01:20.857Z,60.50
2023-05-02T22:06:26.143Z,60.70
2023-05-02T22:11:31.424Z,60.70
2023-05-02T22:16:34.805Z,61.00
2023-05-02T22:21:39.492Z,61.20
2023-05-02T22:26:42.818Z,61.20
